Pilot Point, Alaska
Current Conditions -  °F | °C
As of 5:56 AM on Friday 19 Dec 2014 (Local Time) from PAPN Reporting Station
Clear Clear  
Wind Chill: 12°   Ceiling: Unl
Heat Index: 23°   Visibility: 10mi
Dew Point: 20°   Wind: 12mph
Humidity: 89%   Direction: 40°NE
Pressure: 28.97"   Gusts: NA
Location:  57.56°N, 157.58°W
Report Text: PAPN 191456Z AUTO 04010KT 10SM CLR M05/M07 A2897 RMK AO2 PWINO TSNO 58016 T10501066 SLP811 $
Loading
Personal Weather Stations






























Interactive Weather Map New forecast layout! Learn more

10-Day Weather Forecast

Advertisements
Track Severe Weather on mobile